Weather at Mayo Clinic Health System-Franciscan Healthcare Heliport

Public forecast

Using degrees Fahrenheit for public forecast. Weather courtesy of forecast.io.

Closest aviation weather report (METAR) to Mayo Clinic Health System-Franciscan Healthcare Heliport

Closest report is La Crosse Municipal Airport, 4.6 nm (8.4 km) N. Retrieved 2021/06/13 15:53 UTC (22 minutes ago):

KLSE 131553Z 00000KT 10SM CLR 28/11 A3005 RMK AO2 SLP167 T02780111

Closest aviation forecast (TAF) to Mayo Clinic Health System-Franciscan Healthcare Heliport

Closest forecast is La Crosse Municipal Airport, 4.6 nm (8.4 km) N. Retrieved 2021/06/13 12:40 UTC (4 hours ago):

TAF KLSE 131138Z 1312/1412 31004KT P6SM SKC FM131800 26009KT P6SM BKN100 TEMPO 1321/1324 27010G20KT FM140100 23007KT P6SM SCT100 FM140300 34008KT P6SM SCT250